Terminal Aerodrome Forecast
Issued by NWS

Home | Current Version | Previous Version | Text Only | Print | Product List | Glossary On
Versions: 1 2 3 4 5 6 7 8 9 10 11 12 13 14 15
754
FTUS43 KGRR 250546 AAA
TAFBTL
TAF AMD
KBTL 250546Z 2506/2606 03007KT 3SM -RA BR OVC004
     FM250800 05006KT 2SM -RA BR OVC006
     FM251200 09009KT 2SM -RA BR OVC004=

USA.gov is the U.S. government's official web portal to all federal, state and local government web resources and services.